M I D A S
Marine Information and Data Acquisition System
Tripno 361 of the Zeeleeuw from 2002-11-20 07:24:24 to 2002-11-20 17:15:09
Back to CruiseResearch ActivitiesStationsMapUnderway DataData graphs

EquipmentUnitsComment
TimeDGPSUTC
LatitudeDGPSDM.mWGS84
LongitudeDGPSDM.mWGS84
TemperatureSBE03/SBE38deg celciusITS90
ConductivitySBE21S/mITS90
SalinitySBE21 Practical Salinity Units
ChlorophylAChelsea fluorimeterg/lCalibrated in Aceton
Missing or incorrect values are displayed as -999
Sea surface data collected by the RV Zeeleeuw from 2002-11-20 07:24:24 to 2002-11-20 17:15:09
Time Latitude Longitude Temperature Conductivity Salinity ChlorophylA
2002-11-20 07:25:28 51°14.52 2°54.84 10.550623 3.363905 29.910252  
2002-11-20 07:26:28 51°14.682 2°54.648 10.838161 3.611262 32.122301  
2002-11-20 07:27:28 51°14.847 2°54.454 10.875334 3.708104 32.964937  
2002-11-20 07:28:28 51°15.017 2°54.282 10.890373 3.732553 33.177293  
2002-11-20 07:29:28 51°15.186 2°54.108 10.882738 3.739931 33.245957  
2002-11-20 07:30:28 51°15.357 2°53.925 10.870289 3.744252 33.297432  
2002-11-20 07:31:28 51°15.527 2°53.741 10.839921 3.741934 33.294069  
2002-11-20 07:32:28 51°15.697 2°53.556 10.834735 3.741196 33.307101  
2002-11-20 07:33:28 51°15.883 2°53.36 10.835429 3.745728 33.354937  
2002-11-20 07:34:28 51°16.08 2°53.168 10.842097 3.699673 32.900198  
2002-11-20 07:35:28 51°16.278 2°52.98 10.893103 3.75827 33.458872  
2002-11-20 07:36:28 51°16.483 2°52.822 10.954424 3.77313 33.555746  
2002-11-20 07:37:28 51°16.689 2°52.673 11.022615 3.783353 33.599964  
2002-11-20 07:38:28 51°16.895 2°52.57 11.078971 3.796 33.67023  
2002-11-20 07:39:28 51°17.1 2°52.464 11.127166 3.809491 33.753052  
2002-11-20 07:40:28 51°17.307 2°52.356 11.162517 3.818766 33.80656  
2002-11-20 07:41:28 51°17.521 2°52.291 11.187486 3.82646 33.850986  
2002-11-20 07:42:28 51°17.736 2°52.279 11.199461 3.833628 33.904806  
2002-11-20 07:43:28 51°17.95 2°52.281 11.200796 3.838055 33.941848  
2002-11-20 07:44:28 51°18.159 2°52.33 11.198447 3.839847 33.959511  
2002-11-20 07:45:28 51°18.324 2°52.533 11.188776 3.841111 33.970513  
2002-11-20 07:46:28 51°18.449 2°52.801 11.175694 3.838687 33.959817  
2002-11-20 07:47:28 51°18.555 2°53.094 11.170488 3.836685 33.951074  
2002-11-20 07:48:28 51°18.661 2°53.384 11.445699 3.832574 33.91933  
2002-11-20 07:49:28 51°18.758 2°53.679 11.255252 3.818556 33.833763  
2002-11-20 07:50:28 51°18.851 2°53.976 11.045837 3.79052 33.665754  
2002-11-20 07:51:28 51°18.943 2°54.272 10.924094 3.751841 33.407532  
2002-11-20 07:52:28 51°19.035 2°54.567 10.812874 3.718749 33.180299  
2002-11-20 07:53:28 51°19.126 2°54.861 10.785676 3.683235 32.919388  
2002-11-20 07:54:28 51°19.218 2°55.155 10.739456 3.647934 32.653933  
2002-11-20 07:55:28 51°19.312 2°55.448 10.607293 3.615374 32.398497  
2002-11-20 07:56:28 51°19.405 2°55.743 10.577267 3.591667 32.205069  
2002-11-20 07:57:28 51°19.497 2°56.037 10.661918 3.574282 32.057381  
2002-11-20 07:58:28 51°19.591 2°56.329 10.424882 3.560058 31.933323  
2002-11-20 07:59:28 51°19.684 2°56.62 10.495115 3.550575 31.847302  
2002-11-20 08:00:28 51°19.777 2°56.912 10.375656 3.541831 31.766512  
2002-11-20 08:01:28 51°19.871 2°57.203 10.461172 3.537406 31.723135  
2002-11-20 08:02:28 51°19.964 2°57.498 10.500467 3.534772 31.694795  
2002-11-20 08:03:28 51°20.058 2°57.791 10.404609 3.533191 31.669942  
2002-11-20 08:04:28 51°20.153 2°58.084 10.565737 3.532454 31.649991  
2002-11-20 08:05:28 51°20.246 2°58.377 10.566899 3.530557 31.626923  
2002-11-20 08:06:28 51°20.34 2°58.667 10.670599 3.52687 31.592336  
2002-11-20 08:07:28 51°20.435 2°58.956 10.630198 3.524025 31.571723  
2002-11-20 08:08:28 51°20.526 2°59.245 10.430054 3.523709 31.568578  
2002-11-20 08:09:28 51°20.613 2°59.538 10.536995 3.519706 31.539219  
2002-11-20 08:10:28 51°20.701 2°59.833 10.464525 3.515913 31.504272  
2002-11-20 08:11:28 51°20.785 3°0.132 10.579638 3.513279 31.479461  
2002-11-20 08:12:28 51°20.853 3°0.444 10.490925 3.508749 31.436482  
2002-11-20 08:13:28 51°20.924 3°0.757 10.455117 3.505062 31.403976  
2002-11-20 08:14:28 51°20.994 3°1.072 10.424323 3.507906 31.428794  
2002-11-20 08:15:28 51°21.063 3°1.386 10.58187 3.508643 31.429172  
2002-11-20 08:16:28 51°21.134 3°1.702 10.467552 3.506852 31.41136  
2002-11-20 08:17:28 51°21.204 3°2.019 10.545786 3.507274 31.414161  
2002-11-20 08:18:28 51°21.274 3°2.333 10.437928 3.508959 31.428838  
2002-11-20 08:19:28 51°21.343 3°2.647 10.399621 3.513068 31.468309  
2002-11-20 08:20:28 51°21.411 3°2.963 10.518152 3.515491 31.491017  
2002-11-20 08:21:28 51°21.481 3°3.279 10.564016 3.517598 31.507793  
2002-11-20 08:22:28 51°21.55 3°3.594 10.532901 3.521496 31.541682  
2002-11-20 08:23:28 51°21.621 3°3.909 10.508193 3.5255 31.570332  
2002-11-20 08:24:28 51°21.741 3°4.183 10.530947 3.532875 31.631792  
2002-11-20 08:25:28 51°21.868 3°4.453 10.463035 3.540144 31.685182  
2002-11-20 08:26:28 51°21.949 3°4.761 10.581591 3.543832 31.712036  
2002-11-20 08:27:28 51°21.996 3°5.094 10.604877 3.549205 31.764048  
2002-11-20 08:28:28 51°22.045 3°5.425 10.811576 3.560478 31.854346  
2002-11-20 08:29:28 51°22.096 3°5.757 10.597162 3.568064 31.918491  
2002-11-20 08:30:28 51°22.148 3°6.09 10.572758 3.575966 31.980822  
2002-11-20 08:31:28 51°22.201 3°6.416 10.633078 3.581024 32.028969  
2002-11-20 08:32:28 51°22.254 3°6.745 10.634704 3.578601 32.020414  
2002-11-20 08:33:28 51°22.307 3°7.069 10.568387 3.576493 32.002992  
2002-11-20 08:34:28 51°22.365 3°7.394 10.468064 3.558371 31.846755  
2002-11-20 08:35:28 51°22.43 3°7.715 10.578662 3.54341 31.715551  
2002-11-20 08:36:28 51°22.494 3°8.039 10.665353 3.546887 31.741006  
2002-11-20 08:37:28 51°22.558 3°8.365 10.455304 3.538774 31.663173  
2002-11-20 08:38:28 51°22.622 3°8.693 10.481335 3.527396 31.566156  
2002-11-20 08:39:28 51°22.684 3°9.02 10.469415 3.522866 31.527408  
2002-11-20 08:40:28 51°22.693 3°9.219 10.566155 3.513279 31.441878  
2002-11-20 08:41:28 51°22.678 3°9.309 10.374676 3.506958 31.394342  
2002-11-20 08:42:28 51°22.675 3°9.354 10.569271 3.505377 31.377942  
2002-11-20 08:43:28 51°22.677 3°9.378 10.385914 3.50485 31.368544  
2002-11-20 08:44:28 51°22.681 3°9.391 10.390577 3.512962 31.433873  
2002-11-20 08:45:28 51°22.689 3°9.397 10.397756 3.512646 31.431427  
2002-11-20 08:46:28 51°22.699 3°9.408 10.384049 3.514964 31.447505  
2002-11-20 08:47:28 51°22.701 3°9.414 10.370806 3.505904 31.373462  
2002-11-20 08:48:28 51°22.693 3°9.431 10.371925 3.503586 31.358756  
2002-11-20 08:49:28 51°22.683 3°9.433 10.364043 3.500215 31.32803  
2002-11-20 08:50:28 51°22.674 3°9.436 10.367774 3.500531 31.331171  
2002-11-20 08:51:28 51°22.668 3°9.441 10.363203 3.500636 31.332911  
2002-11-20 08:52:28 51°22.666 3°9.449 10.366002 3.500847 31.335698  
2002-11-20 08:53:28 51°22.668 3°9.459 10.365629 3.500636 31.33499  
2002-11-20 08:54:28 51°22.671 3°9.471 10.367121 3.500426 31.33151  
2002-11-20 08:55:28 51°22.676 3°9.484 10.366468 3.500952 31.336051  
2002-11-20 08:56:28 51°22.694 3°9.528 10.362457 3.498845 31.31373  
2002-11-20 08:57:28 51°22.765 3°9.455 10.360405 3.499688 31.32834  
2002-11-20 08:58:28 51°22.751 3°9.308 10.359192 3.500953 31.342984  
2002-11-20 08:59:28 51°22.687 3°9.2 10.352288 3.503165 31.366363  
2002-11-20 09:00:28 51°22.597 3°9.128 10.354947 3.500953 31.350615  
2002-11-20 09:01:28 51°22.533 3°9.118 10.390297 3.505483 31.378295  
2002-11-20 09:02:28 51°22.489 3°9.121 10.376075 3.510855 31.41919  
2002-11-20 09:03:28 51°22.46 3°9.118 10.377474 3.506747 31.384612  
2002-11-20 09:04:28 51°22.458 3°9.091 10.383396 3.507589 31.389516  
2002-11-20 09:05:28 51°22.462 3°9.063 10.415096 3.508222 31.397185  
2002-11-20 09:06:28 51°22.442 3°9.109 10.391089 3.507695 31.394728  
2002-11-20 09:07:28 51°22.484 3°9.169 10.379526 3.509802 31.409416  
2002-11-20 09:08:28 51°22.554 3°9.258 10.372205 3.50938 31.40384  
2002-11-20 09:09:28 51°22.613 3°9.33 10.370712 3.505799 31.375191  
2002-11-20 09:10:28 51°22.671 3°9.373 10.361757 3.508011 31.398563  
2002-11-20 09:11:28 51°22.706 3°9.42 10.372811 3.506115 31.388743  
2002-11-20 09:12:28 51°22.705 3°9.414 10.391649 3.513805 31.447808  
2002-11-20 09:13:28 51°22.703 3°9.399 10.392068 3.51528 31.456206  
2002-11-20 09:14:28 51°22.705 3°9.391 10.390996 3.515386 31.455863  
2002-11-20 09:15:28 51°22.705 3°9.434 10.389924 3.514859 31.446459  
2002-11-20 09:16:28 51°22.691 3°9.46 10.384748 3.512436 31.432808  
2002-11-20 09:17:28 51°22.676 3°9.479 10.387686 3.513173 31.438746  
2002-11-20 09:18:28 51°22.659 3°9.494 10.390856 3.514121 31.446082  
2002-11-20 09:19:28 51°22.646 3°9.509 10.376169 3.514437 31.447137  
2002-11-20 09:20:28 51°22.644 3°9.522 10.365722 3.510856 31.429613  
2002-11-20 09:21:28 51°22.654 3°9.533 10.360824 3.5078 31.404803  
2002-11-20 09:22:28 51°22.667 3°9.55 10.364416 3.506958 31.398509  
2002-11-20 09:23:28 51°22.682 3°9.566 10.375469 3.508854 31.410412  
2002-11-20 09:24:28 51°22.698 3°9.568 10.375749 3.50917 31.405218  
2002-11-20 09:25:28 51°22.713 3°9.562 10.372997 3.506115 31.377637  
2002-11-20 09:26:28 51°22.724 3°9.556 10.365302 3.501795 31.337495  
2002-11-20 09:27:28 51°22.735 3°9.552 10.361198 3.498424 31.310235  
2002-11-20 09:28:28 51°22.746 3°9.56 10.354014 3.495158 31.282633  
2002-11-20 09:29:28 51°22.755 3°9.578 10.350795 3.493051 31.265849  
2002-11-20 09:30:28 51°22.758 3°9.603 10.345337 3.490101 31.239306  
2002-11-20 09:31:28 51°22.755 3°9.634 10.346363 3.4881 31.223565  
2002-11-20 09:32:28 51°22.744 3°9.668 10.346037 3.490418 31.245903  
2002-11-20 09:33:28 51°22.726 3°9.696 10.275831 3.483359 31.186128  
2002-11-20 09:34:28 51°22.699 3°9.709 10.260136 3.454916 30.959172  
2002-11-20 09:35:28 51°22.66 3°9.684 10.255558 3.453863 30.950757  
2002-11-20 09:36:28 51°22.654 3°9.579 10.238503 3.451967 30.933277  
2002-11-20 09:37:28 51°22.743 3°9.328 10.332132 3.471982 31.103392  
2002-11-20 09:38:28 51°22.85 3°9.024 10.307769 3.463344 31.003785  
2002-11-20 09:39:28 51°22.977 3°8.706 10.322659 3.444171 30.809316  
2002-11-20 09:40:28 51°23.063 3°8.346 10.308189 3.447121 30.839273  
2002-11-20 09:41:28 51°23.125 3°7.971 10.329846 3.448911 30.860465  
2002-11-20 09:42:28 51°23.191 3°7.603 10.388152 3.483991 31.167571  
2002-11-20 09:43:28 51°23.261 3°7.233 10.376961 3.497686 31.286992  
2002-11-20 09:44:28 51°23.323 3°6.909 10.387406 3.504323 31.352217  
2002-11-20 09:45:28 51°23.39 3°6.678 10.459775 3.531505 31.596522  
2002-11-20 09:46:28 51°23.553 3°6.462 10.496139 3.568802 31.914558  
2002-11-20 09:47:28 51°23.771 3°6.454 10.618445 3.58429 32.049424  
2002-11-20 09:48:28 51°23.972 3°6.629 10.619281 3.653307 32.626266  
2002-11-20 09:49:28 51°24.117 3°6.869 10.560482 3.639609 32.509514  
2002-11-20 09:50:28 51°24.204 3°6.985 10.6602 3.664056 32.720121  
2002-11-20 09:51:28 51°24.258 3°7.043 10.665446 3.676491 32.82062  
2002-11-20 09:52:28 51°24.293 3°7.09 10.673478 3.67902 32.842138  
2002-11-20 09:53:28 51°24.334 3°7.086 10.675149 3.681654 32.86326  
2002-11-20 09:54:28 51°24.348 3°7.021 10.685128 3.682919 32.870774  
2002-11-20 09:55:28 51°24.347 3°6.98 10.686614 3.684815 32.881681  
2002-11-20 09:56:28 51°24.344 3°6.948 10.689306 3.685869 32.890702  
2002-11-20 09:57:28 51°24.337 3°6.92 10.691023 3.685764 32.889656  
2002-11-20 09:58:28 51°24.324 3°6.896 10.68847 3.686291 32.892724  
2002-11-20 09:59:28 51°24.306 3°6.875 10.685871 3.685975 32.893911  
2002-11-20 10:00:28 51°24.288 3°6.857 10.689259 3.684815 32.88096  
2002-11-20 10:01:28 51°24.275 3°6.846 10.688099 3.68471 32.879914  
2002-11-20 10:02:28 51°24.271 3°6.841 10.687356 3.687239 32.891328  
2002-11-20 10:03:28 51°24.274 3°6.842 10.68666 3.685658 32.885726  
2002-11-20 10:04:28 51°24.275 3°6.855 10.686799 3.685658 32.887168  
2002-11-20 10:05:28 51°24.276 3°6.867 10.68847 3.685659 32.888609  
2002-11-20 10:06:28 51°24.274 3°6.879 10.688795 3.686291 32.893445  
2002-11-20 10:07:28 51°24.273 3°6.889 10.691997 3.686818 32.897235  
2002-11-20 10:08:28 51°24.271 3°6.898 10.693482 3.687555 32.903838  
2002-11-20 10:09:28 51°24.268 3°6.906 10.694643 3.689136 32.914483  
2002-11-20 10:10:28 51°24.265 3°6.913 10.694132 3.688925 32.912391  
2002-11-20 10:11:29 51°24.263 3°6.917 10.702021 3.689347 32.917297  
2002-11-20 10:12:29 51°24.263 3°6.914 10.695431 3.690611 32.923359  
2002-11-20 10:13:29 51°24.261 3°6.907 10.739966 3.690611 32.930573  
2002-11-20 10:14:29 51°24.256 3°6.899 10.707125 3.695143 32.966177  
2002-11-20 10:15:29 51°24.249 3°6.875 10.712182 3.696724 32.981871  
2002-11-20 10:16:29 51°24.244 3°6.841 10.714316 3.697777 32.985831  
2002-11-20 10:17:29 51°24.243 3°6.806 10.716357 3.695037 32.959355  
2002-11-20 10:18:29 51°24.253 3°6.773 10.710512 3.697567 32.981571  
2002-11-20 10:19:29 51°24.273 3°6.754 10.721367 3.695459 32.966427  
2002-11-20 10:20:29 51°24.295 3°6.76 10.73621 3.707262 33.062622  
2002-11-20 10:21:29 51°24.313 3°6.786 10.738946 3.710529 33.087084  
2002-11-20 10:22:29 51°24.323 3°6.822 10.738297 3.712426 33.108085  
2002-11-20 10:23:29 51°24.331 3°6.872 10.730969 3.713585 33.117417  
2002-11-20 10:24:29 51°24.386 3°6.932 10.704851 3.712637 33.12105  
2002-11-20 10:25:29 51°24.548 3°7.018 10.634518 3.700412 33.034416  
2002-11-20 10:26:29 51°24.751 3°7.124 10.590562 3.677756 32.867788  
2002-11-20 10:27:29 51°24.96 3°7.228 10.539134 3.66374 32.765894  
2002-11-20 10:28:29 51°25.165 3°7.337 10.511497 3.647302 32.642607  
2002-11-20 10:29:29 51°25.372 3°7.444 10.493811 3.635605 32.544842  
2002-11-20 10:30:29 51°25.58 3°7.557 10.469415 3.624857 32.455035  
2002-11-20 10:31:29 51°25.789 3°7.663 10.477237 3.618851 32.408109  
2002-11-20 10:32:29 51°25.997 3°7.768 10.488411 3.620748 32.421275  
2002-11-20 10:33:29 51°26.203 3°7.871 10.476353 3.618641 32.400295  
2002-11-20 10:34:29 51°26.409 3°7.977 10.427724 3.612424 32.353396  
2002-11-20 10:35:29 51°26.616 3°8.081 10.458517 3.606207 32.31075  
2002-11-20 10:36:29 51°26.825 3°8.185 10.45549 3.60979 32.334302  
2002-11-20 10:37:29 51°27.023 3°8.328 10.461451 3.61432 32.364429  
2002-11-20 10:38:29 51°27.21 3°8.509 10.405121 3.60547 32.307683  
2002-11-20 10:39:29 51°27.406 3°8.668 10.408291 3.595039 32.230838  
2002-11-20 10:40:29 51°27.596 3°8.838 10.401159 3.601255 32.285661  
2002-11-20 10:41:29 51°27.768 3°9.06 10.388712 3.591983 32.215339  
2002-11-20 10:42:29 51°27.933 3°9.253 10.381018 3.588506 32.175702  
2002-11-20 10:43:29 51°28.032 3°9.269 10.349629 3.580077 32.114434  
2002-11-20 10:44:29 51°28.08 3°9.212 10.359518 3.570173 32.042658  
2002-11-20 10:45:29 51°28.113 3°9.175 10.381484 3.584291 32.144364  
2002-11-20 10:46:29 51°28.14 3°9.162 10.374956 3.583554 32.138434  
2002-11-20 10:47:29 51°28.157 3°9.158 10.374583 3.581552 32.125586  
2002-11-20 10:48:29 51°28.163 3°9.159 10.391789 3.584923 32.147111  
2002-11-20 10:49:29 51°28.165 3°9.164 10.374816 3.584081 32.140842  
2002-11-20 10:50:29 51°28.164 3°9.168 10.368474 3.580393 32.116874  
2002-11-20 10:51:29 51°28.161 3°9.17 10.371925 3.579761 32.111283  
2002-11-20 10:52:29 51°28.152 3°9.154 10.556251 3.58524 32.150261  
2002-11-20 10:53:29 51°28.139 3°9.14 10.433036 3.609263 32.319786  
2002-11-20 10:54:29 51°28.13 3°9.133 10.381205 3.595249 32.223682  
2002-11-20 10:55:29 51°28.128 3°9.129 10.389691 3.584291 32.147207  
2002-11-20 10:56:29 51°28.131 3°9.129 10.389131 3.587136 32.163475  
2002-11-20 10:57:29 51°28.137 3°9.136 10.391556 3.586399 32.161812  
2002-11-20 10:58:29 51°28.142 3°9.147 10.393281 3.588822 32.178852  
2002-11-20 10:59:29 51°28.144 3°9.156 10.39342 3.5884 32.173941  
2002-11-20 11:00:29 51°28.151 3°9.174 10.398455 3.588084 32.172925  
2002-11-20 11:01:29 51°28.174 3°9.192 10.409642 3.59272 32.209163  
2002-11-20 11:02:29 51°28.193 3°9.204 10.389784 3.587979 32.172586  
2002-11-20 11:03:29 51°28.203 3°9.217 10.3937 3.587558 32.169808  
2002-11-20 11:04:29 51°28.205 3°9.225 10.399434 3.589033 32.178819  
2002-11-20 11:05:29 51°28.181 3°9.21 10.611893 3.607261 32.311261  
2002-11-20 11:06:29 51°28.152 3°9.204 10.480729 3.615795 32.366981  
2002-11-20 11:07:29 51°28.133 3°9.205 10.507774 3.611581 32.336444  
2002-11-20 11:08:29 51°28.14 3°9.201 10.45167 3.616638 32.373229  
2002-11-20 11:09:29 51°28.15 3°9.174 10.423111 3.603257 32.27923  
2002-11-20 11:10:29 51°28.151 3°9.157 10.418218 3.593142 32.209092  
2002-11-20 11:11:29 51°28.15 3°9.143 10.413418 3.595671 32.22788  
2002-11-20 11:12:29 51°28.146 3°9.132 10.415515 3.596197 32.235265  
2002-11-20 11:13:29 51°28.143 3°9.121 10.424276 3.596935 32.243326  
2002-11-20 11:14:29 51°28.137 3°9.107 10.435273 3.599253 32.259298  
2002-11-20 11:15:29 51°28.133 3°9.08 10.452788 3.603573 32.288791  
2002-11-20 11:16:29 51°28.141 3°9.055 10.457819 3.607998 32.321458  
2002-11-20 11:17:29 51°28.159 3°9.035 10.466202 3.610843 32.341941  
2002-11-20 11:18:29 51°28.185 3°9.031 10.473187 3.615901 32.380164  
2002-11-20 11:19:29 51°28.212 3°9.049 10.468064 3.614004 32.365564  
2002-11-20 11:20:29 51°28.234 3°9.081 10.460939 3.611897 32.349578  
2002-11-20 11:21:29 51°28.251 3°9.12 10.460427 3.611581 32.348571  
2002-11-20 11:22:29 51°28.265 3°9.174 10.453999 3.609263 32.331196  
2002-11-20 11:23:29 51°28.251 3°9.261 10.447012 3.607155 32.31235  
2002-11-20 11:24:29 51°28.202 3°9.286 10.44459 3.604627 32.293583  
2002-11-20 11:25:29 51°28.187 3°9.219 10.453906 3.605996 32.305086  
2002-11-20 11:26:29 51°28.199 3°9.091 10.482173 3.610211 32.337786  
2002-11-20 11:27:29 51°28.215 3°8.926 10.499304 3.614953 32.377149  
2002-11-20 11:28:29 51°28.231 3°8.753 10.610406 3.635605 32.529076  
2002-11-20 11:29:29 51°28.248 3°8.58 10.625042 3.662581 32.715521  
2002-11-20 11:30:29 51°28.259 3°8.409 10.6641 3.669114 32.773249  
2002-11-20 11:31:29 51°28.269 3°8.238 10.730784 3.686923 32.893956  
2002-11-20 11:32:29 51°28.281 3°8.07 10.746505 3.697145 32.955014  
2002-11-20 11:33:29 51°28.295 3°7.902 10.755778 3.698515 32.96067  
2002-11-20 11:34:29 51°28.311 3°7.733 10.78841 3.702308 32.989636  
2002-11-20 11:35:29 51°28.325 3°7.564 10.842282 3.714849 33.072797  
2002-11-20 11:36:29 51°28.337 3°7.394 11.065959 3.740879 33.226388  
2002-11-20 11:37:29 51°28.351 3°7.226 11.091796 3.771442 33.391469  
2002-11-20 11:38:29 51°28.367 3°7.032 11.098807 3.774709 33.40921  
2002-11-20 11:39:29 51°28.387 3°6.798 11.10946 3.778081 33.431597  
2002-11-20 11:40:29 51°28.406 3°6.558 11.111258 3.7804 33.447933  
2002-11-20 11:41:29 51°28.427 3°6.317 11.106509 3.781243 33.456242  
2002-11-20 11:42:29 51°28.448 3°6.075 11.095716 3.780822 33.455708  
2002-11-20 11:43:29 51°28.47 3°5.833 11.082985 3.778503 33.444441  
2002-11-20 11:44:29 51°28.493 3°5.59 11.071081 3.775447 33.424445  
2002-11-20 11:45:29 51°28.516 3°5.347 11.064621 3.774393 33.42057  
2002-11-20 11:46:29 51°28.542 3°5.104 11.048053 3.77218 33.409603  
2002-11-20 11:47:29 51°28.569 3°4.861 11.028063 3.767859 33.384351  
2002-11-20 11:48:29 51°28.597 3°4.617 11.016519 3.765118 33.370342  
2002-11-20 11:49:29 51°28.622 3°4.41 10.996566 3.761957 33.353611  
2002-11-20 11:50:30 51°28.641 3°4.263 10.969353 3.757847 33.330399  
2002-11-20 11:51:29 51°28.65 3°4.174 10.95521 3.751839 33.293493  
2002-11-20 11:52:30 51°28.655 3°4.113 10.940278 3.748256 33.271831  
2002-11-20 11:53:30 51°28.659 3°4.064 10.930337 3.744989 33.25039  
2002-11-20 11:54:30 51°28.664 3°4.016 10.91503 3.742776 33.236466  
2002-11-20 11:55:30 51°28.675 3°3.966 10.897359 3.73835 33.209329  
2002-11-20 11:56:30 51°28.69 3°3.906 10.88843 3.734977 33.187539  
2002-11-20 11:57:29 51°28.694 3°3.841 10.86904 3.731394 33.165822  
2002-11-20 11:58:29 51°28.692 3°3.792 10.863023 3.727073 33.138237  
2002-11-20 11:59:30 51°28.696 3°3.772 10.865892 3.726863 33.135428  
2002-11-20 12:00:30 51°28.706 3°3.771 10.861171 3.727179 33.137112  
2002-11-20 12:01:30 51°28.711 3°3.767 10.854274 3.725387 33.127326  
2002-11-20 12:02:29 51°28.714 3°3.763 10.853116 3.723806 33.115289  
2002-11-20 12:03:30 51°28.714 3°3.759 10.846496 3.724439 33.120826  
2002-11-20 12:04:30 51°28.711 3°3.758 10.847653 3.721804 33.103411  
2002-11-20 12:05:29 51°28.706 3°3.761 10.848301 3.721804 33.101244  
2002-11-20 12:06:30 51°28.701 3°3.762 10.856912 3.723069 33.110153  
2002-11-20 12:07:30 51°28.696 3°3.765 10.857329 3.723701 33.112802  
2002-11-20 12:08:30 51°28.689 3°3.77 10.865939 3.72486 33.119944  
2002-11-20 12:09:30 51°28.684 3°3.77 10.872418 3.726019 33.12564  
2002-11-20 12:10:29 51°28.679 3°3.768 10.868484 3.726863 33.131816  
2002-11-20 12:11:30 51°28.675 3°3.768 10.864781 3.72623 33.126281  
2002-11-20 12:12:30 51°28.672 3°3.765 10.866031 3.724333 33.112562  
2002-11-20 12:13:29 51°28.668 3°3.761 10.879221 3.727179 33.131334  
2002-11-20 12:14:30 51°28.665 3°3.759 10.877509 3.727179 33.12989  
2002-11-20 12:15:29 51°28.661 3°3.754 10.871585 3.727495 33.131574  
2002-11-20 12:16:30 51°28.659 3°3.749 10.874871 3.72623 33.121949  
2002-11-20 12:17:30 51°28.658 3°3.743 10.87774 3.726441 33.121869  
2002-11-20 12:18:30 51°28.658 3°3.736 10.879962 3.726862 33.125318  
2002-11-20 12:19:30 51°28.658 3°3.727 10.887736 3.729286 33.140635  
2002-11-20 12:20:30 51°28.659 3°3.719 10.894491 3.730972 33.149371  
2002-11-20 12:21:29 51°28.661 3°3.71 10.906426 3.732026 33.156184  
2002-11-20 12:22:29 51°28.665 3°3.696 10.906288 3.733607 33.163875  
2002-11-20 12:23:30 51°28.674 3°3.674 10.909664 3.732869 33.159468  
2002-11-20 12:24:30 51°28.7 3°3.647 10.917851 3.735082 33.173409  
2002-11-20 12:25:29 51°28.742 3°3.638 10.915677 3.735715 33.178217  
2002-11-20 12:26:30 51°28.794 3°3.653 10.91466 3.735504 33.176133  
2002-11-20 12:27:30 51°28.842 3°3.683 10.912717 3.734977 33.170201  
2002-11-20 12:28:29 51°28.885 3°3.724 10.908832 3.733396 33.158903  
2002-11-20 12:29:29 51°28.925 3°3.772 10.903836 3.73308 33.157942  
2002-11-20 12:30:30 51°28.962 3°3.825 10.893519 3.731078 33.144638  
2002-11-20 12:31:30 51°28.994 3°3.878 10.895416 3.730235 33.141353  
2002-11-20 12:32:30 51°29.023 3°3.937 10.890882 3.730551 33.145202  
2002-11-20 12:33:30 51°29.045 3°4.006 10.887227 3.729075 33.134218  
2002-11-20 12:34:30 51°29.019 3°4.074 10.891437 3.728654 33.129327  
2002-11-20 12:35:30 51°28.882 3°4.034 10.921227 3.730972 33.147927  
2002-11-20 12:36:30 51°28.692 3°3.936 10.965332 3.739192 33.195263  
2002-11-20 12:37:30 51°28.503 3°3.811 11.023861 3.750574 33.262199  
2002-11-20 12:38:30 51°28.319 3°3.672 11.090827 3.766488 33.362149  
2002-11-20 12:39:29 51°28.138 3°3.536 11.121218 3.778714 33.437829  
2002-11-20 12:40:29 51°27.957 3°3.399 11.128134 3.785354 33.480086  
2002-11-20 12:41:29 51°27.772 3°3.261 11.143115 3.790413 33.51833  
2002-11-20 12:42:29 51°27.587 3°3.119 11.174957 3.796209 33.558747  
2002-11-20 12:43:29 51°27.401 3°2.978 11.170856 3.803166 33.609828  
2002-11-20 12:44:29 51°27.217 3°2.843 11.152195 3.802744 33.615117  
2002-11-20 12:45:29 51°27.032 3°2.701 11.127765 3.797474 33.583544  
2002-11-20 12:46:29 51°26.846 3°2.558 11.11776 3.794207 33.565146  
2002-11-20 12:47:29 51°26.662 3°2.415 11.118636 3.793364 33.563372  
2002-11-20 12:48:29 51°26.477 3°2.275 11.126013 3.795472 33.58197  
2002-11-20 12:49:29 51°26.293 3°2.133 11.137307 3.797685 33.598698  
2002-11-20 12:50:29 51°26.107 3°1.994 11.169704 3.807171 33.665266  
2002-11-20 12:51:29 51°25.92 3°1.852 11.173436 3.81339 33.712695  
2002-11-20 12:52:29 51°25.733 3°1.71 11.172745 3.814549 33.721202  
2002-11-20 12:53:29 51°25.544 3°1.567 11.192552 3.816973 33.739252  
2002-11-20 12:54:29 51°25.357 3°1.422 11.179057 3.821717 33.77649  
2002-11-20 12:55:29 51°25.169 3°1.28 11.19527 3.819714 33.771352  
2002-11-20 12:56:29 51°24.98 3°1.133 11.144821 3.814866 33.741812  
2002-11-20 12:57:29 51°24.79 3°0.985 11.174312 3.814023 33.743714  
2002-11-20 12:58:29 51°24.589 3°0.874 11.127074 3.812547 33.737192  
2002-11-20 12:59:29 51°24.381 3°0.807 11.082293 3.810228 33.726001  
2002-11-20 13:00:29 51°24.175 3°0.748 11.017212 3.796105 33.636971  
2002-11-20 13:01:29 51°23.976 3°0.669 10.839273 3.761009 33.387013  
2002-11-20 13:02:29 51°23.785 3°0.577 10.806898 3.718853 33.082858  
2002-11-20 13:03:29 51°23.616 3°0.484 10.801662 3.70979 33.016188  
2002-11-20 13:04:29 51°23.509 3°0.372 10.782756 3.704837 32.980096  
2002-11-20 13:05:29 51°23.42 3°0.256 10.779883 3.702097 32.960874  
2002-11-20 13:06:29 51°23.366 3°0.165 10.784703 3.705259 32.988596  
2002-11-20 13:07:29 51°23.321 3°0.1 10.793693 3.710107 33.027252  
2002-11-20 13:08:29 51°23.285 3°0.036 10.812827 3.712741 33.049025  
2002-11-20 13:09:29 51°23.252 3°0.008 10.823064 3.716008 33.071283  
2002-11-20 13:10:29 51°23.242 3°0.016 10.822415 3.722015 33.117056  
2002-11-20 13:11:29 51°23.241 3°0.033 10.820192 3.719802 33.102362  
2002-11-20 13:12:29 51°23.244 3°0.047 10.824731 3.718748 33.091924  
2002-11-20 13:13:29 51°23.246 3°0.056 10.828344 3.721277 33.114086  
2002-11-20 13:14:29 51°23.243 3°0.057 10.827232 3.722226 33.119866  
2002-11-20 13:15:29 51°23.24 3°0.05 10.829687 3.721488 33.111838  
2002-11-20 13:16:29 51°23.238 3°0.035 10.825658 3.722647 33.122596  
2002-11-20 13:17:29 51°23.237 3°0.014 10.834225 3.722437 33.121231  
2002-11-20 13:18:29 51°23.232 3°0.001 10.837142 3.724544 33.134877  
2002-11-20 13:19:29 51°23.227 2°59.997 10.841819 3.726441 33.150047  
2002-11-20 13:20:29 51°23.218 3°0 10.837652 3.724123 33.132871  
2002-11-20 13:21:29 51°23.21 3°0.008 10.832419 3.724966 33.139774  
2002-11-20 13:22:29 51°23.205 3°0.023 10.829965 3.723596 33.129821  
2002-11-20 13:23:29 51°23.188 3°0.011 10.826306 3.721699 33.11537  
2002-11-20 13:24:29 51°23.198 2°59.957 10.816765 3.72212 33.118823  
2002-11-20 13:25:29 51°23.217 2°59.945 10.80157 3.714743 33.063087  
2002-11-20 13:26:29 51°23.233 2°59.944 10.789754 3.711371 33.038339  
2002-11-20 13:27:29 51°23.247 2°59.946 10.77687 3.706524 33.00329  
2002-11-20 13:28:29 51°23.259 2°59.953 10.770752 3.703889 32.984391  
2002-11-20 13:29:29 51°23.269 2°59.964 10.773255 3.70273 32.977228  
2002-11-20 13:30:29 51°23.275 2°59.978 10.777149 3.704943 32.994836  
2002-11-20 13:31:29 51°23.277 2°59.996 10.791654 3.707367 33.013087  
2002-11-20 13:32:29 51°23.276 3°0.02 10.787483 3.708315 33.019601  
2002-11-20 13:33:29 51°23.274 3°0.051 10.78614 3.708947 33.025145  
2002-11-20 13:34:29 51°23.272 3°0.09 10.793369 3.708947 33.023702  
2002-11-20 13:35:29 51°23.265 3°0.141 10.790866 3.710423 33.034714  
2002-11-20 13:36:29 51°23.259 3°0.203 10.826167 3.711055 33.040258  
2002-11-20 13:37:29 51°23.255 3°0.265 10.788457 3.70979 33.02917  
2002-11-20 13:38:29 51°23.251 3°0.318 10.791793 3.708631 33.022012  
2002-11-20 13:39:29 51°23.249 3°0.36 10.797122 3.71116 33.041302  
2002-11-20 13:40:29 51°23.238 3°0.382 10.802682 3.712004 33.046047  
2002-11-20 13:41:29 51°23.24 3°0.37 10.794388 3.711793 33.04468  
2002-11-20 13:42:29 51°23.255 3°0.344 10.78943 3.710634 33.037524  
2002-11-20 13:43:29 51°23.272 3°0.314 10.790588 3.710317 33.034392  
2002-11-20 13:44:29 51°23.293 3°0.284 10.793183 3.710844 33.040335  
2002-11-20 13:45:29 51°23.305 3°0.243 10.8056 3.712109 33.048535  
2002-11-20 13:46:29 51°23.281 3°0.139 10.815607 3.716535 33.081558  
2002-11-20 13:47:29 51°23.188 2°59.891 10.821489 3.72054 33.110392  
2002-11-20 13:48:29 51°23.1 2°59.714 10.804535 3.719486 33.099231  
2002-11-20 13:49:29 51°22.994 2°59.653 10.793276 3.713479 33.059944  
2002-11-20 13:50:29 51°22.862 2°59.572 10.783915 3.710634 33.036803  
2002-11-20 13:51:29 51°22.735 2°59.376 10.776361 3.706945 33.00891  
2002-11-20 13:52:29 51°22.64 2°59.084 10.784888 3.70705 33.010675  
2002-11-20 13:53:29 51°22.568 2°58.766 10.783822 3.709369 33.029323  
2002-11-20 13:54:29 51°22.494 2°58.451 10.781551 3.709369 33.032932  
2002-11-20 13:55:29 51°22.416 2°58.139 10.801616 3.713163 33.064756  
2002-11-20 13:56:29 51°22.336 2°57.829 10.812874 3.719697 33.109991  
2002-11-20 13:57:29 51°22.257 2°57.52 10.821582 3.721383 33.124529  
2002-11-20 13:58:29 51°22.176 2°57.212 10.825611 3.726231 33.160981  
2002-11-20 13:59:29 51°22.099 2°56.905 10.812827 3.726231 33.161705  
2002-11-20 14:00:29 51°22.019 2°56.598 10.834503 3.723701 33.14533  
2002-11-20 14:01:29 51°21.937 2°56.288 10.850616 3.731816 33.201105  
2002-11-20 14:02:29 51°21.853 2°55.976 10.877602 3.737296 33.238712  
2002-11-20 14:03:29 51°21.796 2°55.648 10.900505 3.747941 33.315805  
2002-11-20 14:04:29 51°21.753 2°55.309 10.910312 3.750364 33.331086  
2002-11-20 14:05:29 51°21.708 2°54.971 10.923354 3.755423 33.367347  
2002-11-20 14:06:29 51°21.661 2°54.637 10.932233 3.759534 33.400021  
2002-11-20 14:07:29 51°21.614 2°54.301 10.940972 3.762168 33.418818  
2002-11-20 14:08:29 51°21.563 2°53.966 10.943838 3.764487 33.434482  
2002-11-20 14:09:29 51°21.507 2°53.632 10.948415 3.765014 33.437512  
2002-11-20 14:10:29 51°21.452 2°53.297 10.958723 3.767965 33.457969  
2002-11-20 14:11:29 51°21.396 2°52.962 10.982337 3.771654 33.483532  
2002-11-20 14:12:29 51°21.337 2°52.629 11.019429 3.779769 33.539731  
2002-11-20 14:13:29 51°21.244 2°52.321 11.035173 3.790414 33.615766  
2002-11-20 14:14:29 51°21.146 2°52.018 11.046206 3.795368 33.653028  
2002-11-20 14:15:29 51°21.046 2°51.717 11.066421 3.79874 33.675391  
2002-11-20 14:16:29 51°20.95 2°51.413 11.084784 3.805907 33.727174  
2002-11-20 14:17:29 51°20.854 2°51.106 11.132744 3.814234 33.783782  
2002-11-20 14:18:29 51°20.759 2°50.803 11.2443 3.836263 33.928583  
2002-11-20 14:19:29 51°20.664 2°50.5 11.308559 3.856817 34.056252  
2002-11-20 14:20:29 51°20.569 2°50.198 11.371883 3.868938 34.128547  
2002-11-20 14:21:29 51°20.473 2°49.896 11.362788 3.874314 34.154971  
2002-11-20 14:22:29 51°20.378 2°49.595 11.432852 3.880111 34.183308  
2002-11-20 14:23:29 51°20.284 2°49.292 11.43198 3.885171 34.203636  
2002-11-20 14:24:29 51°20.19 2°48.988 11.471892 3.891179 34.228114  
2002-11-20 14:25:30 51°20.095 2°48.678 11.54555 3.89782 34.250695  
2002-11-20 14:26:29 51°20.021 2°48.366 11.683205 3.90952 34.27883  
2002-11-20 14:27:29 51°19.944 2°48.047 11.772336 3.925331 34.311252  
2002-11-20 14:28:29 51°19.897 2°47.856 11.793059 3.93271 34.325577  
2002-11-20 14:29:30 51°19.898 2°47.763 11.799768 3.934291 34.329321  
2002-11-20 14:30:30 51°19.911 2°47.73 11.802825 3.934291 34.323497  
2002-11-20 14:31:29 51°19.923 2°47.717 11.803236 3.934713 34.328329  
2002-11-20 14:32:29 51°19.932 2°47.708 11.80173 3.934186 34.322471  
2002-11-20 14:33:29 51°19.94 2°47.702 11.805928 3.934502 34.325549  
2002-11-20 14:34:29 51°19.947 2°47.697 11.804924 3.934607 34.32512  
2002-11-20 14:35:29 51°19.953 2°47.695 11.804331 3.934713 34.323962  
2002-11-20 14:36:29 51°19.958 2°47.695 11.797304 3.934713 34.322507  
2002-11-20 14:37:29 51°19.962 2°47.696 11.794337 3.933869 34.322304  
2002-11-20 14:38:29 51°19.936 2°47.722 11.798125 3.933659 34.321708  
2002-11-20 14:39:29 51°19.913 2°47.767 11.792329 3.933869 34.322304  
2002-11-20 14:40:29 51°19.907 2°47.795 11.793972 3.933659 34.32098  
2002-11-20 14:41:29 51°19.903 2°47.81 11.791097 3.933659 34.323892  
2002-11-20 14:42:29 51°19.903 2°47.815 11.791964 3.933553 34.320682  
2002-11-20 14:43:29 51°19.905 2°47.817 11.786898 3.933869 34.325944  
2002-11-20 14:44:29 51°19.907 2°47.819 11.791051 3.933342 34.322269  
2002-11-20 14:45:29 51°19.911 2°47.823 11.791964 3.933553 34.32141  
2002-11-20 14:46:29 51°19.915 2°47.826 11.790093 3.933237 34.318331  
2002-11-20 14:47:29 51°19.921 2°47.829 11.78352 3.932815 34.319322  
2002-11-20 14:48:29 51°19.927 2°47.833 11.785391 3.932815 34.32005  
2002-11-20 14:49:29 51°19.924 2°47.83 11.789271 3.933448 34.326208  
2002-11-20 14:50:29 51°19.899 2°47.794 11.785026 3.933026 34.322831  
2002-11-20 14:51:29 51°19.898 2°47.779 11.784296 3.933026 34.322103  
2002-11-20 14:52:29 51°19.902 2°47.769 11.783383 3.933237 34.324883  
2002-11-20 14:53:29 51°19.909 2°47.766 11.782926 3.932499 34.316971  
2002-11-20 14:54:29 51°19.918 2°47.767 11.778407 3.932604 34.32091  
2002-11-20 14:55:29 51°19.925 2°47.767 11.783018 3.932183 34.319717  
2002-11-20 14:56:29 51°19.93 2°47.758 11.781238 3.932604 34.320182  
2002-11-20 14:57:29 51°19.938 2°47.73 11.779275 3.932604 34.320182  
2002-11-20 14:58:29 51°19.962 2°47.691 11.779229 3.931867 34.316637  
2002-11-20 14:59:29 51°20.001 2°47.665 11.775668 3.932077 34.319418  
2002-11-20 15:00:29 51°20.048 2°47.663 11.77407 3.931761 34.316339  
2002-11-20 15:01:29 51°20.092 2°47.683 11.774618 3.931761 34.31998  
2002-11-20 15:02:29 51°20.126 2°47.712 11.77092 3.931445 34.315444  
2002-11-20 15:03:29 51°20.158 2°47.744 11.766126 3.931129 34.31819  
2002-11-20 15:04:29 51°20.201 2°47.788 11.765259 3.930707 34.313355  
2002-11-20 15:05:29 51°20.271 2°47.734 11.762976 3.931023 34.317163  
2002-11-20 15:06:29 51°20.23 2°47.567 11.746856 3.929969 34.316365  
2002-11-20 15:07:29 51°20.137 2°47.264 11.737721 3.928704 34.313513  
2002-11-20 15:08:29 51°20.032 2°46.95 11.722052 3.927334 34.31109  
2002-11-20 15:09:29 51°19.922 2°46.643 11.705785 3.92512 34.307008  
2002-11-20 15:10:29 51°19.812 2°46.334 11.698884 3.923855 34.306342  
2002-11-20 15:11:29 51°19.703 2°46.023 11.70286 3.923434 34.302959  
2002-11-20 15:12:29 51°19.593 2°45.713 11.711863 3.923645 34.299909  
2002-11-20 15:13:29 51°19.484 2°45.402 11.724656 3.924804 34.302466  
2002-11-20 15:14:29 51°19.375 2°45.094 11.754939 3.926385 34.301844  
2002-11-20 15:15:29 51°19.268 2°44.783 11.789225 3.929337 34.302921  
2002-11-20 15:16:29 51°19.16 2°44.474 11.820392 3.933975 34.314598  
2002-11-20 15:17:29 51°19.062 2°44.157 11.844292 3.937242 34.320934  
2002-11-20 15:18:29 51°18.985 2°43.882 11.900544 3.941564 34.332427  
2002-11-20 15:19:29 51°18.942 2°43.784 11.937533 3.947362 34.342996  
2002-11-20 15:20:29 51°18.921 2°43.749 11.948416 3.950524 34.346846  
2002-11-20 15:21:29 51°18.908 2°43.738 11.94286 3.950735 34.351067  
2002-11-20 15:22:29 51°18.908 2°43.733 11.934755 3.950735 34.350341  
2002-11-20 15:23:29 51°18.911 2°43.733 11.935256 3.950314 34.353504  
2002-11-20 15:24:29 51°18.919 2°43.734 11.941995 3.950103 34.349282  
2002-11-20 15:25:29 51°18.927 2°43.736 11.96394 3.952106 34.349133  
2002-11-20 15:26:29 51°18.931 2°43.742 11.938352 3.952106 34.352033  
2002-11-20 15:27:29 51°18.934 2°43.751 11.942086 3.951052 34.35486  
2002-11-20 15:28:29 51°18.935 2°43.764 11.943589 3.951052 34.349783  
2002-11-20 15:29:29 51°18.934 2°43.782 11.939263 3.951368 34.352851  
2002-11-20 15:30:29 51°18.932 2°43.803 11.935392 3.950735 34.351792  
2002-11-20 15:31:29 51°18.929 2°43.826 11.929563 3.949787 34.346938  
2002-11-20 15:32:29 51°18.922 2°43.852 11.921911 3.949049 34.341229  
2002-11-20 15:33:29 51°18.908 2°43.868 11.916854 3.948838 34.348614  
2002-11-20 15:34:29 51°18.898 2°43.872 11.92018 3.947995 34.346233  
2002-11-20 15:35:29 51°18.891 2°43.874 11.960663 3.948732 34.345414  
2002-11-20 15:36:29 51°18.886 2°43.874 11.930565 3.949681 34.350268  
2002-11-20 15:37:29 51°18.883 2°43.874 11.941904 3.950946 34.353112  
2002-11-20 15:38:29 51°18.882 2°43.874 11.945775 3.950841 34.349188  
2002-11-20 15:39:29 51°18.882 2°43.872 11.94837 3.951789 34.352591  
2002-11-20 15:40:29 51°18.883 2°43.872 11.951011 3.952106 34.353483  
2002-11-20 15:41:29 51°18.884 2°43.869 11.956839 3.952 34.35101  
2002-11-20 15:42:29 51°18.884 2°43.867 11.956748 3.953371 34.358501  
2002-11-20 15:43:29 51°18.884 2°43.866 11.96089 3.953265 34.356029  
2002-11-20 15:44:29 51°18.885 2°43.865 11.96567 3.953371 34.354152  
2002-11-20 15:45:29 51°18.886 2°43.86 11.972908 3.954425 34.3564  
2002-11-20 15:46:29 51°18.885 2°43.852 11.976458 3.955163 34.362105  
2002-11-20 15:47:29 51°18.873 2°43.836 11.981327 3.954952 34.355713  
2002-11-20 15:48:29 51°18.868 2°43.794 11.988563 3.956111 34.36478  
2002-11-20 15:49:29 51°18.88 2°43.744 11.986743 3.95706 34.363107  
2002-11-20 15:50:29 51°18.904 2°43.697 11.977459 3.956533 34.362345  
2002-11-20 15:51:29 51°18.938 2°43.659 11.976594 3.955479 34.362272  
2002-11-20 15:52:29 51°18.98 2°43.641 11.969494 3.955163 34.356308  
2002-11-20 15:53:29 51°19.02 2°43.644 11.969403 3.954425 34.357125  
2002-11-20 15:54:29 51°19.056 2°43.66 12.012449 3.955268 34.358779  
2002-11-20 15:55:29 51°19.086 2°43.68 11.980872 3.955479 34.358649  
2002-11-20 15:56:29 51°19.113 2°43.715 11.980736 3.956217 34.362903  
2002-11-20 15:57:29 51°19.12 2°43.784 11.974501 3.955901 34.359838  
2002-11-20 15:58:29 51°19.05 2°43.809 11.95438 3.954425 34.355676  
2002-11-20 15:59:29 51°18.889 2°43.948 12.013359 3.952844 34.354115  
2002-11-20 16:00:29 51°18.707 2°44.078 12.043646 3.962753 34.371908  
2002-11-20 16:01:29 51°18.527 2°44.211 11.887055 3.959801 34.376625  
2002-11-20 16:02:29 51°18.346 2°44.343 11.776855 3.940194 34.332188  
2002-11-20 16:03:29 51°18.164 2°44.477 11.700986 3.928915 34.301727  
2002-11-20 16:04:29 51°17.981 2°44.611 11.669672 3.920377 34.276789  
2002-11-20 16:05:29 51°17.799 2°44.745 11.654764 3.917109 34.265324  
2002-11-20 16:06:29 51°17.617 2°44.88 11.625487 3.914263 34.257238  
2002-11-20 16:07:29 51°17.435 2°45.011 11.603475 3.910152 34.24555  
2002-11-20 16:08:29 51°17.253 2°45.142 11.580266 3.907938 34.239252  
2002-11-20 16:09:29 51°17.072 2°45.274 11.597571 3.902773 34.210668  
2002-11-20 16:10:30 51°16.896 2°45.434 11.535334 3.896659 34.170592  
2002-11-20 16:11:29 51°16.73 2°45.6 11.501099 3.890335 34.136447  
2002-11-20 16:12:29 51°16.563 2°45.767 11.464966 3.883588 34.099596  
2002-11-20 16:13:29 51°16.395 2°45.933 11.40747 3.877053 34.074255  
2002-11-20 16:14:29 51°16.226 2°46.099 11.357689 3.869464 34.050955  
2002-11-20 16:15:29 51°16.069 2°46.298 11.318581 3.863562 34.036869  
2002-11-20 16:16:29 51°15.936 2°46.538 11.296558 3.8604 34.034335  
2002-11-20 16:17:29 51°15.898 2°46.853 11.278024 3.859135 34.042405  
2002-11-20 16:18:29 51°15.876 2°47.174 11.269606 3.858714 34.051451  
2002-11-20 16:19:29 51°15.841 2°47.491 11.295455 3.858503 34.046444  
2002-11-20 16:20:29 51°15.803 2°47.807 11.366922 3.860294 34.039156  
2002-11-20 16:21:29 51°15.764 2°48.123 11.365544 3.863562 34.036138  
2002-11-20 16:22:29 51°15.723 2°48.437 11.390207 3.865459 34.026991  
2002-11-20 16:23:29 51°15.683 2°48.75 11.415182 3.867145 34.020904  
2002-11-20 16:24:29 51°15.642 2°49.063 11.455884 3.871045 34.03288  
2002-11-20 16:25:29 51°15.6 2°49.38 11.490555 3.877369 34.05547  
2002-11-20 16:26:29 51°15.558 2°49.696 11.498257 3.881375 34.075008  
2002-11-20 16:27:29 51°15.515 2°50.011 11.465195 3.88148 34.081143  
2002-11-20 16:28:29 51°15.472 2°50.326 11.406873 3.875261 34.058884  
2002-11-20 16:29:29 51°15.429 2°50.642 11.346845 3.867356 34.038306  
2002-11-20 16:30:29 51°15.386 2°50.957 11.34997 3.862613 34.026089  
2002-11-20 16:31:29 51°15.342 2°51.269 11.326165 3.86177 34.014154  
2002-11-20 16:32:29 51°15.299 2°51.579 11.22437 3.849648 33.960824  
2002-11-20 16:33:29 51°15.222 2°51.856 11.171501 3.833206 33.870653  
2002-11-20 16:34:29 51°15.142 2°52.088 11.301524 3.837949 33.899811  
2002-11-20 16:35:29 51°15.064 2°52.314 11.301019 3.849543 33.935678  
2002-11-20 16:36:29 51°14.986 2°52.54 11.29219 3.846907 33.917811  
2002-11-20 16:37:29 51°14.908 2°52.767 11.27393 3.846275 33.912326  
2002-11-20 16:38:29 51°14.831 2°52.995 11.252951 3.83974 33.872892  
2002-11-20 16:39:29 51°14.764 2°53.196 11.215024 3.834786 33.843137  
2002-11-20 16:40:29 51°14.72 2°53.325 11.155374 3.823508 33.778821  
2002-11-20 16:41:29 51°14.689 2°53.421 11.105863 3.80949 33.692481  
2002-11-20 16:42:29 51°14.664 2°53.502 11.080401 3.799899 33.633612  
2002-11-20 16:43:29 51°14.642 2°53.569 11.050684 3.793259 33.592864  
2002-11-20 16:44:29 51°14.624 2°53.622 11.025893 3.785987 33.548016  
2002-11-20 16:45:29 51°14.609 2°53.668 11.016288 3.781455 33.522183  
2002-11-20 16:46:29 51°14.602 2°53.711 10.85219 3.779452 33.508226  
2002-11-20 16:47:29 51°14.589 2°53.74 10.709074 3.684182 32.782008  
2002-11-20 16:48:29 51°14.575 2°53.761 10.761991 3.675014 32.716997  
2002-11-20 16:49:29 51°14.56 2°53.782 10.740198 3.684077 32.790279  
2002-11-20 16:50:29 51°14.544 2°53.802 10.719512 3.682391 32.78433  
2002-11-20 16:51:29 51°14.527 2°53.822 10.735653 3.675541 32.734385  
2002-11-20 16:52:29 51°14.51 2°53.844 10.747293 3.684498 32.805208  
2002-11-20 16:53:29 51°14.489 2°53.885 10.821304 3.691137 32.85949  
2002-11-20 16:54:29 51°14.461 2°54.049 10.685685 3.697144 32.909647  
2002-11-20 16:55:29 51°14.454 2°54.303 10.715058 3.690505 32.886292  
2002-11-20 16:56:29 51°14.46 2°54.579 10.724243 3.707262 33.048154  
2002-11-20 16:57:29 51°14.431 2°54.852 10.702902 3.697672 32.960962  
2002-11-20 16:58:29 51°14.347 2°55.099 10.663218 3.643085 32.447111  
2002-11-20 16:59:29 51°14.258 2°55.267 10.780439 3.639502 32.427963  
2002-11-20 17:00:29 51°14.186 2°55.36 10.711533 3.586079 31.90906  
2002-11-20 17:01:29 51°14.115 2°55.419 10.745114 3.020432 26.349848  
2002-11-20 17:02:29 51°14.04 2°55.476 10.615425 2.537638 21.789736  
2002-11-20 17:03:29 51°13.962 2°55.536 18.718694 0.03545 0.234996  
2002-11-20 17:04:29 51°13.883 2°55.596 18.958303 0.034931 0.231105  
2002-11-20 17:05:29 51°13.817 2°55.648 15.036656 0.033164 0.218861  
2002-11-20 17:06:29 51°13.764 2°55.696 15.574984 0.03202 0.210807  
2002-11-20 17:07:29 51°13.733 2°55.752 15.016564 0.030981 0.203484  
2002-11-20 17:08:29 51°13.708 2°55.804 16.338245 0.030149 0.197579  
2002-11-20 17:09:29 51°13.687 2°55.851 14.55474 0.02963 0.193786  
2002-11-20 17:10:29 51°13.673 2°55.895 17.435127 0.029318 0.191393  
2002-11-20 17:11:29 51°13.67 2°55.933 16.041685 0.02911 0.189699  
2002-11-20 17:12:29 51°13.671 2°55.943 14.176106 0.02911 0.189391  
2002-11-20 17:13:29 51°13.667 2°55.95 17.174722 0.028902 0.187703  
2002-11-20 17:14:29 51°13.666 2°55.953 15.611857 0.028798 0.186719